createdAt,value
2018-11-12T00:00:18.724Z,19.20
2018-11-12T00:01:00.000Z,19.12
2018-11-12T00:01:33.461Z,19.15
2018-11-12T00:02:06.120Z,18.45
2018-11-12T00:02:38.805Z,18.55
2018-11-12T00:03:11.491Z,18.75
2018-11-12T00:03:44.153Z,19.00
2018-11-12T00:04:17.334Z,18.87
2018-11-12T00:04:50.017Z,18.27
2018-11-12T00:05:22.745Z,19.37
2018-11-12T00:05:55.399Z,18.50
2018-11-12T00:06:28.082Z,18.85
2018-11-12T00:07:00.761Z,18.62
2018-11-12T00:07:33.553Z,18.60
2018-11-12T00:08:06.255Z,19.05
2018-11-12T00:08:38.912Z,18.40
2018-11-12T00:09:11.594Z,19.07
2018-11-12T00:09:44.259Z,19.65
2018-11-12T00:10:16.927Z,19.15
2018-11-12T00:10:49.561Z,19.27
2018-11-12T00:11:22.215Z,18.62
2018-11-12T00:11:54.867Z,18.57
2018-11-12T00:12:27.537Z,19.17
2018-11-12T00:13:00.223Z,18.50
2018-11-12T00:13:32.881Z,18.85
2018-11-12T00:14:05.801Z,19.02
2018-11-12T00:14:38.449Z,18.75
2018-11-12T00:15:11.555Z,18.77
2018-11-12T00:15:44.231Z,19.17
2018-11-12T00:16:24.883Z,18.52
2018-11-12T00:16:57.554Z,18.45
2018-11-12T00:17:30.612Z,19.37
2018-11-12T00:18:03.261Z,19.12
2018-11-12T00:18:35.889Z,19.45
2018-11-12T00:19:08.653Z,18.98
2018-11-12T00:19:41.289Z,19.50
2018-11-12T00:20:15.051Z,19.48
2018-11-12T00:20:47.699Z,19.15
2018-11-12T00:21:20.355Z,19.52
2018-11-12T00:21:53.037Z,20.17
2018-11-12T00:22:25.717Z,20.00
2018-11-12T00:22:58.369Z,19.80
2018-11-12T00:23:31.007Z,19.60
2018-11-12T00:24:03.685Z,19.62
2018-11-12T00:24:36.436Z,19.75
2018-11-12T00:25:09.111Z,20.57
2018-11-12T00:25:41.773Z,19.82
2018-11-12T00:26:14.613Z,19.48
2018-11-12T00:26:47.297Z,19.55
2018-11-12T00:27:19.959Z,19.77
2018-11-12T00:27:52.634Z,20.80
2018-11-12T00:28:25.289Z,19.60
2018-11-12T00:28:57.947Z,20.05
2018-11-12T00:29:30.599Z,20.08
2018-11-12T00:30:03.676Z,19.77
2018-11-12T00:30:36.350Z,19.82
2018-11-12T00:31:09.173Z,20.62
2018-11-12T00:31:41.819Z,20.12
2018-11-12T00:32:14.499Z,19.90
2018-11-12T00:32:47.852Z,20.55
2018-11-12T00:33:20.521Z,20.72
2018-11-12T00:33:53.193Z,20.05
2018-11-12T00:34:25.824Z,20.48
2018-11-12T00:34:58.677Z,20.23
2018-11-12T00:35:31.331Z,20.43
2018-11-12T00:36:04.008Z,20.55
2018-11-12T00:36:36.796Z,20.35
2018-11-12T00:37:09.461Z,20.00
2018-11-12T00:37:42.936Z,20.50
2018-11-12T00:38:15.587Z,19.98
2018-11-12T00:38:48.235Z,19.90
2018-11-12T00:39:20.878Z,19.95
2018-11-12T00:39:53.539Z,19.92
2018-11-12T00:40:26.195Z,19.85
2018-11-12T00:40:58.891Z,20.45
2018-11-12T00:41:31.541Z,20.00
2018-11-12T00:42:04.780Z,20.12
2018-11-12T00:42:37.462Z,19.75
2018-11-12T00:43:10.106Z,20.05
2018-11-12T00:43:42.768Z,19.15
2018-11-12T00:44:15.447Z,19.82
2018-11-12T00:44:48.076Z,19.62
2018-11-12T00:45:20.824Z,19.90
2018-11-12T00:45:53.461Z,19.75
2018-11-12T00:46:26.121Z,20.20
2018-11-12T00:46:58.777Z,19.92
2018-11-12T00:47:31.435Z,19.65
2018-11-12T00:48:04.235Z,19.62
2018-11-12T00:48:36.885Z,20.02
2018-11-12T00:49:09.557Z,20.50
2018-11-12T00:49:42.615Z,20.08
2018-11-12T00:50:15.681Z,20.12
2018-11-12T00:50:48.332Z,19.90
2018-11-12T00:51:20.996Z,20.02
2018-11-12T00:51:53.673Z,19.62
2018-11-12T00:52:26.300Z,20.12
2018-11-12T00:52:58.963Z,20.32
2018-11-12T00:53:31.628Z,20.65
2018-11-12T00:54:04.303Z,20.25
2018-11-12T00:54:36.988Z,20.15
2018-11-12T00:55:11.529Z,20.72
2018-11-12T00:55:44.209Z,20.35
2018-11-12T00:56:16.851Z,20.48
2018-11-12T00:56:49.575Z,21.97
2018-11-12T00:57:22.343Z,21.33
2018-11-12T00:57:55.010Z,20.45
2018-11-12T00:58:27.675Z,20.70
2018-11-12T00:59:00.336Z,20.82
2018-11-12T00:59:33.089Z,21.15
2018-11-12T01:00:10.014Z,20.48
2018-11-12T01:00:42.693Z,21.12
2018-11-12T01:01:15.368Z,20.37
2018-11-12T01:01:48.035Z,20.45
2018-11-12T01:02:20.796Z,20.00
2018-11-12T01:02:53.470Z,20.65
2018-11-12T01:03:26.126Z,20.48
2018-11-12T01:03:58.829Z,20.40
2018-11-12T01:04:31.444Z,20.80
2018-11-12T01:05:04.990Z,20.45
2018-11-12T01:05:37.672Z,20.95
2018-11-12T01:06:10.338Z,20.80
2018-11-12T01:06:42.996Z,20.30
2018-11-12T01:07:15.683Z,20.57
2018-11-12T01:07:48.585Z,21.50
2018-11-12T01:08:21.208Z,20.52
2018-11-12T01:08:53.904Z,21.17
2018-11-12T01:09:26.606Z,20.88
2018-11-12T01:09:59.283Z,21.00
2018-11-12T01:10:31.940Z,21.23
2018-11-12T01:11:05.100Z,20.68
2018-11-12T01:11:37.818Z,21.62
2018-11-12T01:12:10.482Z,21.80
2018-11-12T01:12:43.700Z,21.85
2018-11-12T01:13:16.370Z,21.07
2018-11-12T01:13:49.032Z,21.37
2018-11-12T01:14:21.708Z,21.97
2018-11-12T01:14:54.368Z,21.80
2018-11-12T01:15:27.014Z,21.97
2018-11-12T01:15:59.651Z,21.77
2018-11-12T01:16:32.308Z,21.55
2018-11-12T01:17:05.176Z,21.77
2018-11-12T01:17:37.884Z,21.93
2018-11-12T01:18:10.557Z,22.00
2018-11-12T01:18:43.234Z,22.07
2018-11-12T01:19:15.896Z,22.25
2018-11-12T01:19:48.532Z,22.93
2018-11-12T01:20:21.200Z,22.07
2018-11-12T01:20:53.840Z,21.48
2018-11-12T01:21:26.494Z,22.20
2018-11-12T01:21:59.126Z,22.15
2018-11-12T01:22:31.808Z,23.07
2018-11-12T01:23:04.856Z,21.82
2018-11-12T01:23:37.516Z,21.85
2018-11-12T01:24:10.174Z,21.50
2018-11-12T01:24:42.864Z,21.87
2018-11-12T01:25:15.736Z,21.93
2018-11-12T01:25:48.412Z,21.33
2018-11-12T01:26:21.081Z,21.95
2018-11-12T01:26:53.806Z,22.15
2018-11-12T01:27:26.464Z,22.07
2018-11-12T01:27:59.096Z,21.85
2018-11-12T01:28:31.750Z,21.80
2018-11-12T01:29:04.709Z,21.50
2018-11-12T01:29:37.354Z,21.90
2018-11-12T01:30:12.488Z,21.97
2018-11-12T01:30:45.152Z,21.33
2018-11-12T01:31:17.808Z,22.37
2018-11-12T01:31:50.445Z,22.42
2018-11-12T01:32:23.085Z,21.97
2018-11-12T01:32:55.712Z,21.97
2018-11-12T01:33:28.350Z,21.62
2018-11-12T01:34:01.006Z,21.42
2018-11-12T01:34:33.666Z,21.48
2018-11-12T01:35:07.820Z,21.55
2018-11-12T01:35:40.472Z,21.70
2018-11-12T01:36:13.126Z,22.05
2018-11-12T01:36:45.779Z,21.90
2018-11-12T01:37:18.432Z,21.97
2018-11-12T01:37:51.090Z,22.17
2018-11-12T01:38:23.738Z,20.72
2018-11-12T01:38:56.374Z,22.05
2018-11-12T01:39:29.054Z,22.17
2018-11-12T01:40:01.726Z,22.07
2018-11-12T01:40:34.390Z,22.65
2018-11-12T01:41:07.054Z,22.65
2018-11-12T01:41:40.331Z,22.20
2018-11-12T01:42:13.067Z,22.27
2018-11-12T01:42:45.848Z,22.07
2018-11-12T01:43:18.515Z,22.30
2018-11-12T01:43:51.151Z,23.10
2018-11-12T01:44:23.867Z,21.17
2018-11-12T01:44:56.532Z,22.10
2018-11-12T01:45:29.271Z,22.52
2018-11-12T01:46:01.937Z,21.90
2018-11-12T01:46:34.588Z,22.02
2018-11-12T01:47:07.240Z,22.15
2018-11-12T01:47:39.927Z,21.93
2018-11-12T01:48:12.605Z,21.93
2018-11-12T01:48:45.262Z,21.30
2018-11-12T01:49:17.898Z,21.20
2018-11-12T01:49:50.567Z,22.00
2018-11-12T01:50:23.214Z,21.80
2018-11-12T01:50:55.888Z,21.20
2018-11-12T01:51:28.520Z,21.55
2018-11-12T01:52:01.187Z,22.17
2018-11-12T01:52:33.851Z,21.15
2018-11-12T01:53:06.501Z,22.05
2018-11-12T01:53:39.179Z,22.05
2018-11-12T01:54:11.899Z,22.35
2018-11-12T01:54:44.547Z,22.20
2018-11-12T01:55:18.282Z,21.27
2018-11-12T01:55:50.985Z,20.80
2018-11-12T01:56:23.648Z,21.23
2018-11-12T01:56:56.294Z,22.22
2018-11-12T01:57:28.995Z,21.90
2018-11-12T01:58:01.690Z,22.02
2018-11-12T01:58:34.323Z,21.80
2018-11-12T01:59:07.231Z,21.27
2018-11-12T01:59:40.141Z,21.87
2018-11-12T02:00:14.940Z,21.65
2018-11-12T02:00:47.627Z,21.23
2018-11-12T02:01:20.263Z,22.25
2018-11-12T02:01:52.998Z,22.07
2018-11-12T02:02:25.583Z,21.73
2018-11-12T02:02:58.227Z,21.52
2018-11-12T02:03:30.915Z,21.20
2018-11-12T02:04:04.059Z,22.22
2018-11-12T02:04:36.723Z,22.87
2018-11-12T02:05:09.746Z,22.25
2018-11-12T02:05:42.435Z,22.00
2018-11-12T02:06:15.117Z,22.15
2018-11-12T02:06:47.801Z,21.68
2018-11-12T02:07:20.448Z,22.00
2018-11-12T02:07:53.107Z,22.48
2018-11-12T02:08:25.806Z,21.68
2018-11-12T02:08:58.528Z,21.95
2018-11-12T02:09:31.193Z,21.97
2018-11-12T02:10:04.241Z,22.50
2018-11-12T02:10:36.919Z,22.10
2018-11-12T02:11:09.579Z,22.02
2018-11-12T02:11:42.221Z,21.60
2018-11-12T02:12:14.911Z,21.85
2018-11-12T02:12:47.562Z,22.22
2018-11-12T02:13:20.251Z,22.48
2018-11-12T02:13:52.902Z,21.75
2018-11-12T02:14:25.624Z,21.55
2018-11-12T02:14:58.247Z,22.27
2018-11-12T02:15:30.900Z,21.70
2018-11-12T02:16:05.750Z,22.13
2018-11-12T02:16:38.400Z,22.17
2018-11-12T02:17:11.059Z,21.85
2018-11-12T02:17:44.656Z,22.27
2018-11-12T02:18:17.373Z,22.32
2018-11-12T02:18:50.032Z,21.95
2018-11-12T02:19:22.700Z,22.32
2018-11-12T02:19:55.357Z,23.23
2018-11-12T02:20:28.007Z,22.98
2018-11-12T02:21:00.681Z,22.52
2018-11-12T02:21:33.396Z,23.12
2018-11-12T02:22:06.050Z,22.20
2018-11-12T02:22:38.719Z,23.10
2018-11-12T02:23:11.391Z,22.85
2018-11-12T02:23:44.114Z,22.93
2018-11-12T02:24:16.776Z,22.42
2018-11-12T02:24:49.633Z,22.62
2018-11-12T02:25:22.307Z,22.60
2018-11-12T02:25:55.005Z,23.18
2018-11-12T02:26:27.695Z,22.40
2018-11-12T02:27:00.367Z,22.90
2018-11-12T02:27:33.029Z,23.42
2018-11-12T02:28:05.737Z,22.13
2018-11-12T02:28:38.432Z,22.65
2018-11-12T02:29:11.164Z,22.22
2018-11-12T02:29:43.799Z,22.82
2018-11-12T02:30:22.735Z,23.05
2018-11-12T02:30:55.391Z,22.48
2018-11-12T02:31:28.081Z,23.40
2018-11-12T02:32:00.725Z,22.87
2018-11-12T02:32:33.409Z,22.82
2018-11-12T02:33:06.178Z,22.77
2018-11-12T02:33:38.723Z,22.87
2018-11-12T02:34:11.383Z,22.77
2018-11-12T02:34:44.039Z,23.10
2018-11-12T02:35:16.722Z,22.55
2018-11-12T02:35:49.363Z,22.37
2018-11-12T02:36:22.027Z,23.85
2018-11-12T02:36:54.681Z,23.40
2018-11-12T02:37:27.339Z,23.32
2018-11-12T02:38:00.008Z,23.60
2018-11-12T02:38:32.684Z,23.73
2018-11-12T02:39:07.655Z,23.60
2018-11-12T02:39:40.323Z,23.15
2018-11-12T02:40:13.269Z,23.10
2018-11-12T02:40:45.955Z,23.05
2018-11-12T02:41:18.603Z,23.00
2018-11-12T02:41:51.277Z,23.10
2018-11-12T02:42:23.921Z,23.40
2018-11-12T02:42:56.591Z,23.38
2018-11-12T02:43:29.267Z,23.20
2018-11-12T02:44:01.944Z,23.55
2018-11-12T02:44:34.591Z,23.95
2018-11-12T02:45:08.224Z,23.10
2018-11-12T02:45:40.877Z,23.55
2018-11-12T02:46:13.575Z,23.05
2018-11-12T02:46:46.216Z,23.73
2018-11-12T02:47:18.883Z,22.87
2018-11-12T02:47:51.541Z,23.47
2018-11-12T02:48:24.204Z,23.32
2018-11-12T02:48:56.845Z,23.30
2018-11-12T02:49:29.525Z,23.57
2018-11-12T02:50:02.227Z,23.65
2018-11-12T02:50:34.901Z,23.80
2018-11-12T02:51:07.566Z,23.85
2018-11-12T02:51:40.255Z,23.18
2018-11-12T02:52:12.885Z,23.30
2018-11-12T02:52:45.558Z,23.77
2018-11-12T02:53:18.215Z,24.07
2018-11-12T02:53:50.893Z,24.40
2018-11-12T02:54:23.527Z,23.95
2018-11-12T02:54:56.215Z,24.15
2018-11-12T02:55:28.894Z,25.30
2018-11-12T02:56:01.667Z,24.25
2018-11-12T02:56:34.932Z,24.87
2018-11-12T02:57:07.575Z,24.45
2018-11-12T02:57:41.044Z,24.07
2018-11-12T02:58:13.703Z,24.70
2018-11-12T02:58:46.371Z,24.50
2018-11-12T02:59:19.099Z,24.40
2018-11-12T02:59:51.761Z,24.47
2018-11-12T03:00:24.447Z,24.27
2018-11-12T03:00:57.119Z,24.67
2018-11-12T03:01:29.774Z,25.30
2018-11-12T03:02:02.484Z,24.37
2018-11-12T03:02:35.214Z,24.45
2018-11-12T03:03:07.886Z,24.57
2018-11-12T03:03:40.543Z,24.40
2018-11-12T03:04:13.251Z,24.23
2018-11-12T03:04:45.944Z,25.50
2018-11-12T03:05:18.595Z,24.65
2018-11-12T03:05:51.268Z,24.43
2018-11-12T03:06:23.927Z,24.85
2018-11-12T03:06:56.595Z,24.80
2018-11-12T03:07:29.341Z,25.08
2018-11-12T03:08:02.017Z,24.52
2018-11-12T03:08:34.631Z,25.52
2018-11-12T03:09:09.893Z,25.00
2018-11-12T03:09:42.548Z,25.60
2018-11-12T03:10:18.303Z,24.85
2018-11-12T03:10:50.967Z,24.92
2018-11-12T03:11:23.610Z,25.02
2018-11-12T03:11:56.296Z,24.50
2018-11-12T03:12:29.008Z,25.20
2018-11-12T03:13:01.686Z,24.77
2018-11-12T03:13:34.336Z,24.05
2018-11-12T03:14:07.217Z,24.60
2018-11-12T03:14:39.881Z,24.12
2018-11-12T03:15:13.417Z,24.50
2018-11-12T03:15:46.064Z,25.05
2018-11-12T03:16:18.751Z,25.02
2018-11-12T03:16:51.396Z,23.90
2018-11-12T03:17:24.064Z,24.72
2018-11-12T03:17:56.704Z,24.63
2018-11-12T03:18:29.351Z,25.35
2018-11-12T03:19:01.995Z,24.63
2018-11-12T03:19:34.671Z,24.98
2018-11-12T03:20:09.264Z,25.30
2018-11-12T03:20:41.940Z,25.02
2018-11-12T03:21:14.613Z,24.87
2018-11-12T03:21:47.281Z,24.95
2018-11-12T03:22:19.949Z,24.60
2018-11-12T03:22:52.629Z,24.57
2018-11-12T03:23:25.283Z,24.60
2018-11-12T03:23:57.974Z,24.75
2018-11-12T03:24:30.626Z,24.60
2018-11-12T03:25:03.588Z,25.10
2018-11-12T03:25:36.244Z,25.82
2018-11-12T03:26:08.955Z,25.12
2018-11-12T03:26:41.632Z,24.80
2018-11-12T03:27:14.317Z,25.70
2018-11-12T03:27:47.516Z,24.75
2018-11-12T03:28:20.207Z,24.67
2018-11-12T03:28:52.851Z,24.87
2018-11-12T03:29:25.511Z,24.60
2018-11-12T03:29:58.170Z,25.08
2018-11-12T03:30:30.920Z,25.45
2018-11-12T03:31:03.706Z,24.70
2018-11-12T03:31:36.374Z,24.72
2018-11-12T03:32:09.036Z,25.35
2018-11-12T03:32:42.056Z,25.90
2018-11-12T03:33:14.740Z,25.88
2018-11-12T03:33:47.430Z,25.72
2018-11-12T03:34:20.092Z,26.45
2018-11-12T03:34:52.744Z,25.70
2018-11-12T03:35:25.414Z,25.72
2018-11-12T03:35:58.060Z,26.00
2018-11-12T03:36:30.694Z,26.75
2018-11-12T03:37:03.395Z,26.42
2018-11-12T03:37:36.026Z,26.37
2018-11-12T03:38:08.688Z,26.55
2018-11-12T03:38:41.356Z,26.35
2018-11-12T03:39:14.020Z,26.35
2018-11-12T03:39:46.867Z,26.80
2018-11-12T03:40:21.406Z,26.75
2018-11-12T03:40:54.153Z,26.35
2018-11-12T03:41:26.802Z,26.12
2018-11-12T03:41:59.468Z,26.62
2018-11-12T03:42:32.114Z,25.50
2018-11-12T03:43:05.311Z,25.97
2018-11-12T03:43:37.995Z,25.68
2018-11-12T03:44:10.655Z,26.62
2018-11-12T03:44:43.323Z,26.77
2018-11-12T03:45:17.443Z,26.35
2018-11-12T03:45:50.100Z,26.12
2018-11-12T03:46:22.767Z,26.05
2018-11-12T03:46:55.422Z,26.20
2018-11-12T03:47:28.088Z,26.70
2018-11-12T03:48:00.754Z,26.15
2018-11-12T03:48:33.416Z,26.15
2018-11-12T03:49:06.070Z,27.27
2018-11-12T03:49:38.748Z,26.73
2018-11-12T03:50:15.416Z,27.35
2018-11-12T03:50:48.098Z,27.22
2018-11-12T03:51:20.745Z,27.05
2018-11-12T03:51:53.420Z,26.90
2018-11-12T03:52:26.066Z,26.85
2018-11-12T03:52:58.726Z,27.13
2018-11-12T03:53:31.406Z,27.40
2018-11-12T03:54:04.478Z,26.48
2018-11-12T03:54:37.176Z,26.75
2018-11-12T03:55:11.540Z,27.37
2018-11-12T03:55:44.206Z,26.90
2018-11-12T03:56:16.870Z,28.05
2018-11-12T03:56:49.539Z,27.25
2018-11-12T03:57:22.178Z,27.25
2018-11-12T03:57:54.835Z,27.37
2018-11-12T03:58:27.524Z,26.05
2018-11-12T03:59:00.210Z,26.93
2018-11-12T03:59:32.859Z,27.05
2018-11-12T04:00:08.774Z,27.37
2018-11-12T04:00:41.445Z,27.22
2018-11-12T04:01:14.120Z,26.70
2018-11-12T04:01:46.784Z,27.48
2018-11-12T04:02:19.424Z,28.05
2018-11-12T04:02:52.083Z,27.07
2018-11-12T04:03:24.742Z,27.10
2018-11-12T04:03:57.400Z,27.25
2018-11-12T04:04:30.092Z,27.02
2018-11-12T04:05:02.874Z,27.58
2018-11-12T04:05:35.521Z,26.87
2018-11-12T04:06:08.184Z,27.48
2018-11-12T04:06:41.132Z,27.87
2018-11-12T04:07:13.770Z,28.17
2018-11-12T04:07:46.432Z,27.77
2018-11-12T04:08:19.088Z,27.67
2018-11-12T04:08:51.730Z,28.20
2018-11-12T04:09:24.383Z,27.40
2018-11-12T04:09:57.040Z,27.62
2018-11-12T04:10:29.681Z,28.17
2018-11-12T04:11:02.370Z,28.17
2018-11-12T04:11:35.070Z,28.55
2018-11-12T04:12:07.765Z,27.17
2018-11-12T04:12:40.456Z,28.02
2018-11-12T04:13:13.130Z,28.57
2018-11-12T04:13:45.776Z,27.87
2018-11-12T04:14:18.436Z,27.22
2018-11-12T04:14:51.150Z,28.67
2018-11-12T04:15:24.906Z,28.65
2018-11-12T04:15:57.601Z,29.25
2018-11-12T04:16:30.246Z,28.57
2018-11-12T04:17:02.923Z,30.08
2018-11-12T04:17:35.606Z,28.57
2018-11-12T04:18:08.301Z,28.95
2018-11-12T04:18:40.950Z,29.40
2018-11-12T04:19:13.634Z,28.85
2018-11-12T04:19:46.286Z,28.77
2018-11-12T04:20:20.248Z,28.83
2018-11-12T04:20:52.954Z,29.37
2018-11-12T04:21:25.599Z,28.70
2018-11-12T04:21:58.267Z,28.70
2018-11-12T04:22:30.910Z,28.87
2018-11-12T04:23:05.108Z,29.15
2018-11-12T04:23:37.764Z,30.27
2018-11-12T04:24:10.424Z,28.90
2018-11-12T04:24:43.070Z,30.10
2018-11-12T04:25:15.740Z,29.82
2018-11-12T04:25:48.424Z,29.65
2018-11-12T04:26:21.111Z,30.32
2018-11-12T04:26:53.748Z,30.25
2018-11-12T04:27:26.394Z,28.47
2018-11-12T04:27:59.043Z,29.32
2018-11-12T04:28:31.698Z,29.63
2018-11-12T04:29:04.569Z,29.92
2018-11-12T04:29:37.209Z,28.95
2018-11-12T04:30:12.306Z,30.02
2018-11-12T04:30:45.015Z,30.60
2018-11-12T04:31:17.698Z,30.20
2018-11-12T04:31:50.346Z,30.77
2018-11-12T04:32:22.999Z,30.95
2018-11-12T04:32:55.654Z,30.77
2018-11-12T04:33:28.332Z,30.55
2018-11-12T04:34:00.985Z,29.52
2018-11-12T04:34:33.646Z,30.50
2018-11-12T04:35:06.807Z,30.05
2018-11-12T04:35:39.496Z,29.70
2018-11-12T04:36:12.161Z,29.92
2018-11-12T04:36:44.820Z,31.17
2018-11-12T04:37:17.469Z,30.57
2018-11-12T04:37:50.115Z,29.67
2018-11-12T04:38:22.773Z,30.08
2018-11-12T04:38:55.799Z,31.37
2018-11-12T04:39:28.462Z,30.90
2018-11-12T04:40:01.134Z,30.50
2018-11-12T04:40:33.806Z,30.97
2018-11-12T04:41:06.473Z,31.87
2018-11-12T04:41:39.131Z,31.10
2018-11-12T04:42:11.854Z,30.32
2018-11-12T04:42:44.650Z,31.17
2018-11-12T04:43:17.294Z,31.00
2018-11-12T04:43:49.952Z,31.50
2018-11-12T04:44:22.618Z,31.10
2018-11-12T04:44:55.271Z,31.57
2018-11-12T04:45:28.048Z,30.43
2018-11-12T04:46:00.607Z,31.42
2018-11-12T04:46:33.289Z,32.03
2018-11-12T04:47:06.186Z,31.55
2018-11-12T04:47:38.891Z,31.30
2018-11-12T04:48:11.593Z,31.52
2018-11-12T04:48:44.280Z,32.13
2018-11-12T04:49:16.943Z,30.52
2018-11-12T04:49:49.571Z,31.50
2018-11-12T04:50:24.342Z,32.05
2018-11-12T04:50:56.983Z,31.73
2018-11-12T04:51:29.633Z,31.15
2018-11-12T04:52:02.271Z,33.00
2018-11-12T04:52:34.925Z,32.35
2018-11-12T04:53:07.571Z,33.10
2018-11-12T04:53:40.342Z,32.60
2018-11-12T04:54:13.031Z,32.78
2018-11-12T04:54:45.699Z,32.35
2018-11-12T04:55:19.513Z,32.48
2018-11-12T04:55:52.125Z,33.53
2018-11-12T04:56:24.807Z,31.65
2018-11-12T04:56:57.465Z,32.30
2018-11-12T04:57:30.121Z,32.40
2018-11-12T04:58:02.776Z,32.58
2018-11-12T04:58:35.456Z,30.00
2018-11-12T04:59:08.108Z,32.20
2018-11-12T04:59:40.763Z,33.15
2018-11-12T05:00:31.352Z,33.60
2018-11-12T05:01:04.323Z,32.90
2018-11-12T05:01:36.981Z,32.00
2018-11-12T05:02:09.693Z,33.65
2018-11-12T05:02:42.389Z,32.85
2018-11-12T05:03:15.029Z,32.13
2018-11-12T05:03:47.719Z,32.28
2018-11-12T05:04:20.375Z,32.05
2018-11-12T05:04:53.035Z,31.90
2018-11-12T05:05:26.935Z,31.37
2018-11-12T05:05:59.571Z,32.42
2018-11-12T05:06:32.236Z,32.48
2018-11-12T05:07:04.883Z,32.28
2018-11-12T05:07:37.614Z,32.55
2018-11-12T05:08:10.229Z,31.95
2018-11-12T05:08:42.894Z,31.87
2018-11-12T05:09:15.557Z,32.30
2018-11-12T05:09:48.211Z,31.97
2018-11-12T05:10:21.902Z,32.28
2018-11-12T05:10:54.561Z,32.48
2018-11-12T05:11:27.231Z,32.40
2018-11-12T05:11:59.892Z,32.10
2018-11-12T05:12:32.555Z,32.17
2018-11-12T05:13:05.275Z,32.42
2018-11-12T05:13:37.947Z,31.50
2018-11-12T05:14:10.611Z,32.25
2018-11-12T05:14:43.279Z,30.48
2018-11-12T05:15:17.126Z,31.23
2018-11-12T05:15:49.793Z,32.28
2018-11-12T05:16:22.432Z,31.33
2018-11-12T05:16:55.117Z,31.55
2018-11-12T05:17:27.759Z,31.57
2018-11-12T05:18:00.425Z,31.95
2018-11-12T05:18:33.121Z,31.85
2018-11-12T05:19:05.825Z,31.65
2018-11-12T05:19:38.482Z,31.60
2018-11-12T05:20:15.115Z,31.12
2018-11-12T05:20:47.789Z,32.17
2018-11-12T05:21:20.463Z,32.48
2018-11-12T05:21:53.342Z,32.53
2018-11-12T05:22:25.996Z,32.03
2018-11-12T05:22:58.671Z,31.52
2018-11-12T05:23:31.315Z,32.15
2018-11-12T05:24:04.525Z,31.33
2018-11-12T05:24:37.196Z,31.07
2018-11-12T05:25:09.947Z,32.03
2018-11-12T05:25:42.659Z,30.88
2018-11-12T05:26:15.331Z,31.05
2018-11-12T05:26:48.023Z,30.95
2018-11-12T05:27:20.899Z,30.57
2018-11-12T05:27:53.547Z,32.05
2018-11-12T05:28:26.191Z,32.03
2018-11-12T05:28:58.855Z,30.92
2018-11-12T05:29:31.651Z,31.45
2018-11-12T05:30:07.992Z,32.10
2018-11-12T05:30:40.665Z,31.30
2018-11-12T05:31:13.365Z,30.88
2018-11-12T05:31:46.100Z,32.13
2018-11-12T05:32:19.414Z,31.23
2018-11-12T05:32:52.362Z,31.57
2018-11-12T05:33:25.181Z,30.92
2018-11-12T05:33:57.851Z,31.10
2018-11-12T05:34:30.505Z,30.48
2018-11-12T05:35:03.252Z,31.52
2018-11-12T05:35:35.927Z,31.33
2018-11-12T05:36:08.584Z,30.25
2018-11-12T05:36:41.243Z,30.02
2018-11-12T05:37:13.909Z,30.12
2018-11-12T05:37:46.661Z,29.87
2018-11-12T05:38:19.305Z,31.00
2018-11-12T05:38:51.943Z,30.37
2018-11-12T05:39:24.618Z,30.15
2018-11-12T05:39:57.286Z,30.27
2018-11-12T05:40:30.209Z,30.32
2018-11-12T05:44:04.046Z,30.62
2018-11-12T05:44:36.687Z,31.48
2018-11-12T05:45:09.416Z,31.40
2018-11-12T05:45:42.080Z,32.15
2018-11-12T05:46:14.740Z,33.08
2018-11-12T05:46:47.398Z,31.90
2018-11-12T05:47:20.067Z,31.97
2018-11-12T05:47:52.897Z,32.55
2018-11-12T05:48:25.584Z,31.55
2018-11-12T05:48:58.221Z,32.67
2018-11-12T05:49:30.886Z,32.13
2018-11-12T05:50:05.175Z,33.23
2018-11-12T05:50:37.838Z,32.70
2018-11-12T05:51:10.499Z,31.82
2018-11-12T05:51:43.187Z,32.20
2018-11-12T05:52:15.876Z,32.28
2018-11-12T05:52:49.771Z,31.77
2018-11-12T05:53:22.443Z,32.03
2018-11-12T05:53:55.138Z,32.00
2018-11-12T05:54:27.795Z,31.27
2018-11-12T05:55:00.451Z,31.68
2018-11-12T05:55:33.684Z,32.70
2018-11-12T05:56:06.366Z,31.62
2018-11-12T05:56:39.018Z,31.95
2018-11-12T05:57:11.689Z,32.78
2018-11-12T05:57:44.976Z,32.78
2018-11-12T05:58:17.630Z,32.83
2018-11-12T05:58:50.346Z,32.90
2018-11-12T05:59:22.955Z,33.00
2018-11-12T05:59:55.600Z,32.40
2018-11-12T06:00:29.574Z,33.10
2018-11-12T06:01:02.258Z,35.63
2018-11-12T06:01:34.945Z,34.88
2018-11-12T06:02:07.628Z,35.25
2018-11-12T06:02:40.616Z,34.27
2018-11-12T06:03:13.308Z,34.50
2018-11-12T06:03:45.950Z,34.63
2018-11-12T06:04:18.615Z,34.43
2018-11-12T06:04:51.324Z,34.78
2018-11-12T06:05:24.001Z,34.48
2018-11-12T06:05:56.684Z,32.88
2018-11-12T06:06:29.343Z,34.98
2018-11-12T06:07:02.026Z,35.63
2018-11-12T06:07:34.908Z,34.63
2018-11-12T06:08:07.619Z,34.43
2018-11-12T06:08:40.296Z,35.17
2018-11-12T06:09:13.018Z,34.80
2018-11-12T06:09:45.672Z,34.63
2018-11-12T06:10:19.654Z,35.03
2018-11-12T06:10:52.354Z,33.95
2018-11-12T06:11:25.012Z,34.05
2018-11-12T06:11:57.661Z,34.78
2018-11-12T06:12:30.308Z,34.73
2018-11-12T06:13:03.008Z,33.73
2018-11-12T06:13:35.660Z,34.48
2018-11-12T06:14:08.336Z,34.80
2018-11-12T06:14:40.972Z,33.55
2018-11-12T06:15:13.884Z,34.10
2018-11-12T06:15:46.591Z,33.38
2018-11-12T06:16:19.242Z,33.10
2018-11-12T06:16:51.918Z,32.98
2018-11-12T06:17:24.612Z,34.03
2018-11-12T06:17:58.349Z,33.90
2018-11-12T06:18:31.057Z,32.65
2018-11-12T06:19:03.754Z,34.00
2018-11-12T06:19:36.414Z,32.25
2018-11-12T06:20:11.253Z,32.28
2018-11-12T06:20:43.919Z,32.58
2018-11-12T06:21:16.578Z,32.45
2018-11-12T06:21:49.284Z,32.60
2018-11-12T06:22:21.952Z,32.63
2018-11-12T06:22:54.625Z,32.13
2018-11-12T06:23:27.280Z,33.65
2018-11-12T06:23:59.960Z,32.40
2018-11-12T06:24:32.642Z,32.70
2018-11-12T06:25:06.056Z,32.80
2018-11-12T06:25:38.722Z,32.38
2018-11-12T06:26:11.414Z,33.08
2018-11-12T06:26:44.075Z,33.20
2018-11-12T06:27:16.771Z,32.90
2018-11-12T06:27:49.698Z,32.50
2018-11-12T06:28:22.379Z,32.60
2018-11-12T06:28:55.016Z,33.80
2018-11-12T06:29:27.684Z,33.18
2018-11-12T06:30:00.344Z,32.42
2018-11-12T06:30:34.464Z,32.13
2018-11-12T06:31:07.210Z,32.67
2018-11-12T06:31:40.132Z,33.63
2018-11-12T06:32:12.823Z,32.33
2018-11-12T06:32:45.602Z,31.60
2018-11-12T06:33:18.263Z,32.25
2018-11-12T06:33:50.946Z,33.00
2018-11-12T06:34:23.601Z,31.57
2018-11-12T06:34:56.268Z,32.42
2018-11-12T06:35:28.990Z,33.63
2018-11-12T06:36:01.717Z,33.13
2018-11-12T06:36:34.571Z,31.97
2018-11-12T06:37:07.220Z,32.63
2018-11-12T06:37:40.398Z,31.80
2018-11-12T06:38:13.102Z,32.70
2018-11-12T06:38:45.790Z,32.48
2018-11-12T06:39:18.426Z,32.35
2018-11-12T06:39:51.108Z,31.95
2018-11-12T06:40:24.892Z,30.95
2018-11-12T06:40:57.616Z,32.67
2018-11-12T06:41:30.276Z,33.20
2018-11-12T06:42:02.968Z,32.75
2018-11-12T06:42:36.036Z,33.23
2018-11-12T06:43:08.678Z,33.15
2018-11-12T06:43:41.382Z,33.60
2018-11-12T06:44:14.048Z,33.63
2018-11-12T06:44:46.722Z,32.55
2018-11-12T06:45:21.544Z,32.98
2018-11-12T06:45:54.197Z,32.93
2018-11-12T06:46:26.946Z,33.42
2018-11-12T06:46:59.618Z,32.83
2018-11-12T06:47:32.259Z,33.38
2018-11-12T06:48:06.943Z,33.78
2018-11-12T06:48:39.611Z,34.05
2018-11-12T06:49:12.280Z,33.78
2018-11-12T06:49:45.217Z,33.23
2018-11-12T06:50:19.216Z,33.02
2018-11-12T06:50:51.880Z,33.85
2018-11-12T06:51:24.542Z,33.38
2018-11-12T06:51:57.190Z,33.02
2018-11-12T06:52:29.843Z,33.63
2018-11-12T06:53:02.934Z,34.00
2018-11-12T06:53:35.642Z,33.53
2018-11-12T06:54:08.231Z,33.63
2018-11-12T06:54:40.924Z,33.92
2018-11-12T06:55:14.464Z,34.27
2018-11-12T06:55:47.118Z,34.53
2018-11-12T06:56:19.866Z,33.73
2018-11-12T06:56:52.523Z,33.92
2018-11-12T06:57:25.195Z,33.67
2018-11-12T06:57:58.043Z,33.18
2018-11-12T06:58:30.693Z,33.20
2018-11-12T07:02:05.164Z,34.35
2018-11-12T07:02:37.849Z,35.03
2018-11-12T07:03:11.511Z,34.40
2018-11-12T07:03:44.185Z,34.03
2018-11-12T07:04:16.885Z,34.73
2018-11-12T07:04:49.548Z,34.25
2018-11-12T07:05:22.217Z,33.55
2018-11-12T07:05:54.891Z,34.70
2018-11-12T07:06:27.631Z,33.70
2018-11-12T07:07:00.253Z,34.38
2018-11-12T07:07:32.901Z,33.40
2018-11-12T07:08:05.677Z,33.15
2018-11-12T07:08:38.348Z,33.50
2018-11-12T07:09:12.202Z,33.58